sensor_id;sensor_type;location;lat;lon;timestamp;temperature;humidity
4308;DHT22;2167;53.448;9.984;2023-05-10T00:00:25;15.00;1.00
4308;DHT22;2167;53.448;9.984;2023-05-10T00:02:50;15.10;1.00
4308;DHT22;2167;53.448;9.984;2023-05-10T00:05:16;15.00;1.00
4308;DHT22;2167;53.448;9.984;2023-05-10T00:07:42;15.00;1.00
4308;DHT22;2167;53.448;9.984;2023-05-10T00:10:10;15.00;1.00
4308;DHT22;2167;53.448;9.984;2023-05-10T00:12:36;15.00;1.00
4308;DHT22;2167;53.448;9.984;2023-05-10T00:15:02;15.00;1.00
4308;DHT22;2167;53.448;9.984;2023-05-10T00:17:28;14.90;1.00
4308;DHT22;2167;53.448;9.984;2023-05-10T00:19:54;14.90;1.00
4308;DHT22;2167;53.448;9.984;2023-05-10T00:22:19;14.80;1.00
4308;DHT22;2167;53.448;9.984;2023-05-10T00:24:45;14.80;1.00
4308;DHT22;2167;53.448;9.984;2023-05-10T00:27:11;14.70;1.00
4308;DHT22;2167;53.448;9.984;2023-05-10T00:29:37;14.60;1.00
4308;DHT22;2167;53.448;9.984;2023-05-10T00:32:02;14.60;1.00
4308;DHT22;2167;53.448;9.984;2023-05-10T00:34:28;14.50;1.00
4308;DHT22;2167;53.448;9.984;2023-05-10T00:36:53;14.60;1.00
4308;DHT22;2167;53.448;9.984;2023-05-10T00:39:21;14.50;1.00
4308;DHT22;2167;53.448;9.984;2023-05-10T00:41:46;14.50;1.00
4308;DHT22;2167;53.448;9.984;2023-05-10T00:44:12;14.50;1.00
4308;DHT22;2167;53.448;9.984;2023-05-10T00:46:37;14.50;1.00
4308;DHT22;2167;53.448;9.984;2023-05-10T00:49:03;14.40;1.00
4308;DHT22;2167;53.448;9.984;2023-05-10T00:51:29;14.40;1.00
4308;DHT22;2167;53.448;9.984;2023-05-10T00:53:56;14.30;1.00
4308;DHT22;2167;53.448;9.984;2023-05-10T00:56:22;14.20;1.00
4308;DHT22;2167;53.448;9.984;2023-05-10T00:58:50;14.10;1.00
4308;DHT22;2167;53.448;9.984;2023-05-10T01:01:16;14.10;1.00
4308;DHT22;2167;53.448;9.984;2023-05-10T01:03:41;14.00;1.00
4308;DHT22;2167;53.448;9.984;2023-05-10T01:06:08;14.00;1.00
4308;DHT22;2167;53.448;9.984;2023-05-10T01:08:35;14.00;1.00
4308;DHT22;2167;53.448;9.984;2023-05-10T01:11:01;13.90;1.00
4308;DHT22;2167;53.448;9.984;2023-05-10T01:13:36;13.90;1.00
4308;DHT22;2167;53.448;9.984;2023-05-10T01:16:03;13.90;1.00
4308;DHT22;2167;53.448;9.984;2023-05-10T01:18:30;13.80;1.00
4308;DHT22;2167;53.448;9.984;2023-05-10T01:21:17;13.80;1.00
4308;DHT22;2167;53.448;9.984;2023-05-10T01:29:59;13.70;1.00
4308;DHT22;2167;53.448;9.984;2023-05-10T01:35:32;13.60;1.00
4308;DHT22;2167;53.448;9.984;2023-05-10T01:38:07;13.60;1.00
4308;DHT22;2167;53.448;9.984;2023-05-10T01:40:52;13.60;1.00
4308;DHT22;2167;53.448;9.984;2023-05-10T01:43:29;13.60;1.00
4308;DHT22;2167;53.448;9.984;2023-05-10T01:46:07;13.60;1.00
4308;DHT22;2167;53.448;9.984;2023-05-10T01:48:57;13.60;1.00
4308;DHT22;2167;53.448;9.984;2023-05-10T01:51:29;13.60;1.00
4308;DHT22;2167;53.448;9.984;2023-05-10T01:54:01;13.60;1.00
4308;DHT22;2167;53.448;9.984;2023-05-10T01:56:30;13.60;1.00
4308;DHT22;2167;53.448;9.984;2023-05-10T01:58:58;13.50;1.00
4308;DHT22;2167;53.448;9.984;2023-05-10T02:01:26;13.50;1.00
4308;DHT22;2167;53.448;9.984;2023-05-10T02:03:54;13.50;1.00
4308;DHT22;2167;53.448;9.984;2023-05-10T02:06:20;13.50;1.00
4308;DHT22;2167;53.448;9.984;2023-05-10T02:08:49;13.50;1.00
4308;DHT22;2167;53.448;9.984;2023-05-10T02:11:17;13.50;1.00
4308;DHT22;2167;53.448;9.984;2023-05-10T02:13:44;13.50;1.00
4308;DHT22;2167;53.448;9.984;2023-05-10T02:16:12;13.50;1.00
4308;DHT22;2167;53.448;9.984;2023-05-10T02:18:40;13.40;1.00
4308;DHT22;2167;53.448;9.984;2023-05-10T02:21:07;13.40;1.00
4308;DHT22;2167;53.448;9.984;2023-05-10T02:23:34;13.40;1.00
4308;DHT22;2167;53.448;9.984;2023-05-10T02:26:02;13.30;1.00
4308;DHT22;2167;53.448;9.984;2023-05-10T02:28:29;13.30;1.00
4308;DHT22;2167;53.448;9.984;2023-05-10T02:30:55;13.20;1.00
4308;DHT22;2167;53.448;9.984;2023-05-10T02:33:22;13.20;1.00
4308;DHT22;2167;53.448;9.984;2023-05-10T02:35:48;13.20;1.00
4308;DHT22;2167;53.448;9.984;2023-05-10T02:38:15;13.10;1.00
4308;DHT22;2167;53.448;9.984;2023-05-10T02:40:42;13.10;1.00
4308;DHT22;2167;53.448;9.984;2023-05-10T02:43:12;13.00;1.00
4308;DHT22;2167;53.448;9.984;2023-05-10T02:45:38;12.90;1.00
4308;DHT22;2167;53.448;9.984;2023-05-10T02:48:05;12.90;1.00
4308;DHT22;2167;53.448;9.984;2023-05-10T02:50:32;12.90;1.00
4308;DHT22;2167;53.448;9.984;2023-05-10T02:53:10;12.90;1.00
4308;DHT22;2167;53.448;9.984;2023-05-10T02:55:38;12.80;1.00
4308;DHT22;2167;53.448;9.984;2023-05-10T02:58:06;12.80;1.00
4308;DHT22;2167;53.448;9.984;2023-05-10T03:00:32;12.80;1.00
4308;DHT22;2167;53.448;9.984;2023-05-10T03:02:58;12.70;1.00
4308;DHT22;2167;53.448;9.984;2023-05-10T03:05:24;12.70;1.00
4308;DHT22;2167;53.448;9.984;2023-05-10T03:07:50;12.70;1.00
4308;DHT22;2167;53.448;9.984;2023-05-10T03:10:17;12.70;1.00
4308;DHT22;2167;53.448;9.984;2023-05-10T03:15:40;12.60;1.00
4308;DHT22;2167;53.448;9.984;2023-05-10T03:18:17;12.60;1.00
4308;DHT22;2167;53.448;9.984;2023-05-10T03:20:58;12.60;1.00
4308;DHT22;2167;53.448;9.984;2023-05-10T03:23:31;12.60;1.00
4308;DHT22;2167;53.448;9.984;2023-05-10T03:25:59;12.60;1.00
4308;DHT22;2167;53.448;9.984;2023-05-10T03:28:26;12.60;1.00
4308;DHT22;2167;53.448;9.984;2023-05-10T03:30:56;12.50;1.00
4308;DHT22;2167;53.448;9.984;2023-05-10T03:33:21;12.60;1.00
4308;DHT22;2167;53.448;9.984;2023-05-10T03:35:48;12.60;1.00
4308;DHT22;2167;53.448;9.984;2023-05-10T03:38:13;12.60;1.00
4308;DHT22;2167;53.448;9.984;2023-05-10T03:40:39;12.60;1.00
4308;DHT22;2167;53.448;9.984;2023-05-10T03:43:05;12.60;1.00
4308;DHT22;2167;53.448;9.984;2023-05-10T03:45:30;12.60;1.00
4308;DHT22;2167;53.448;9.984;2023-05-10T03:47:57;12.60;1.00
4308;DHT22;2167;53.448;9.984;2023-05-10T03:50:23;12.60;1.00
4308;DHT22;2167;53.448;9.984;2023-05-10T03:52:49;12.60;1.00
4308;DHT22;2167;53.448;9.984;2023-05-10T03:55:15;12.60;1.00
4308;DHT22;2167;53.448;9.984;2023-05-10T03:57:41;12.60;1.00
4308;DHT22;2167;53.448;9.984;2023-05-10T04:00:07;12.50;1.00
4308;DHT22;2167;53.448;9.984;2023-05-10T04:02:33;12.60;1.00
4308;DHT22;2167;53.448;9.984;2023-05-10T04:04:59;12.50;1.00
4308;DHT22;2167;53.448;9.984;2023-05-10T04:07:24;12.60;1.00
4308;DHT22;2167;53.448;9.984;2023-05-10T04:09:50;12.60;1.00
4308;DHT22;2167;53.448;9.984;2023-05-10T04:12:15;12.60;1.00
4308;DHT22;2167;53.448;9.984;2023-05-10T04:14:41;12.60;1.00
4308;DHT22;2167;53.448;9.984;2023-05-10T04:17:06;12.60;1.00
4308;DHT22;2167;53.448;9.984;2023-05-10T04:19:32;12.70;1.00
4308;DHT22;2167;53.448;9.984;2023-05-10T04:21:58;12.70;1.00
4308;DHT22;2167;53.448;9.984;2023-05-10T04:24:24;12.70;1.00
4308;DHT22;2167;53.448;9.984;2023-05-10T04:26:50;12.70;1.00
4308;DHT22;2167;53.448;9.984;2023-05-10T04:29:15;12.70;1.00
4308;DHT22;2167;53.448;9.984;2023-05-10T04:31:41;12.80;1.00
4308;DHT22;2167;53.448;9.984;2023-05-10T04:34:07;12.70;1.00
4308;DHT22;2167;53.448;9.984;2023-05-10T04:36:32;12.70;1.00
4308;DHT22;2167;53.448;9.984;2023-05-10T04:39:00;12.70;1.00
4308;DHT22;2167;53.448;9.984;2023-05-10T04:41:26;12.70;1.00
4308;DHT22;2167;53.448;9.984;2023-05-10T04:43:51;12.80;1.00
4308;DHT22;2167;53.448;9.984;2023-05-10T04:46:17;12.80;1.00
4308;DHT22;2167;53.448;9.984;2023-05-10T04:48:43;12.90;1.00
4308;DHT22;2167;53.448;9.984;2023-05-10T04:51:08;12.90;1.00
4308;DHT22;2167;53.448;9.984;2023-05-10T04:53:34;12.90;1.00
4308;DHT22;2167;53.448;9.984;2023-05-10T04:55:59;12.90;1.00
4308;DHT22;2167;53.448;9.984;2023-05-10T04:58:28;13.00;1.00
4308;DHT22;2167;53.448;9.984;2023-05-10T05:00:56;13.00;1.00
4308;DHT22;2167;53.448;9.984;2023-05-10T05:03:22;13.00;1.00
4308;DHT22;2167;53.448;9.984;2023-05-10T05:05:48;13.10;1.00
4308;DHT22;2167;53.448;9.984;2023-05-10T05:08:13;13.20;1.00
4308;DHT22;2167;53.448;9.984;2023-05-10T05:10:39;13.30;1.00
4308;DHT22;2167;53.448;9.984;2023-05-10T05:13:05;13.30;1.00
4308;DHT22;2167;53.448;9.984;2023-05-10T05:15:31;13.40;1.00
4308;DHT22;2167;53.448;9.984;2023-05-10T05:17:56;13.40;1.00
4308;DHT22;2167;53.448;9.984;2023-05-10T05:20:22;13.50;1.00
4308;DHT22;2167;53.448;9.984;2023-05-10T05:22:48;13.40;1.00
4308;DHT22;2167;53.448;9.984;2023-05-10T05:25:13;13.40;1.00
4308;DHT22;2167;53.448;9.984;2023-05-10T05:27:40;13.40;1.00
4308;DHT22;2167;53.448;9.984;2023-05-10T05:30:06;13.50;1.00
4308;DHT22;2167;53.448;9.984;2023-05-10T05:32:32;13.60;1.00
4308;DHT22;2167;53.448;9.984;2023-05-10T05:34:58;13.60;1.00
4308;DHT22;2167;53.448;9.984;2023-05-10T05:37:23;13.70;1.00
4308;DHT22;2167;53.448;9.984;2023-05-10T05:39:50;13.80;1.00
4308;DHT22;2167;53.448;9.984;2023-05-10T05:42:15;13.90;1.00
4308;DHT22;2167;53.448;9.984;2023-05-10T05:44:43;13.90;1.00
4308;DHT22;2167;53.448;9.984;2023-05-10T05:47:09;14.00;1.00
4308;DHT22;2167;53.448;9.984;2023-05-10T05:49:35;14.10;1.00
4308;DHT22;2167;53.448;9.984;2023-05-10T05:52:02;14.20;1.00
4308;DHT22;2167;53.448;9.984;2023-05-10T05:54:29;14.30;1.00
4308;DHT22;2167;53.448;9.984;2023-05-10T05:56:56;14.40;1.00
4308;DHT22;2167;53.448;9.984;2023-05-10T05:59:22;14.50;1.00
4308;DHT22;2167;53.448;9.984;2023-05-10T06:01:48;14.50;1.00
4308;DHT22;2167;53.448;9.984;2023-05-10T06:04:15;14.60;1.00
4308;DHT22;2167;53.448;9.984;2023-05-10T06:06:40;14.70;1.00
4308;DHT22;2167;53.448;9.984;2023-05-10T06:09:06;14.80;1.00
4308;DHT22;2167;53.448;9.984;2023-05-10T06:11:31;15.00;1.00
4308;DHT22;2167;53.448;9.984;2023-05-10T06:13:58;15.00;1.00
4308;DHT22;2167;53.448;9.984;2023-05-10T06:16:23;15.00;1.00
4308;DHT22;2167;53.448;9.984;2023-05-10T06:18:49;15.00;1.00
4308;DHT22;2167;53.448;9.984;2023-05-10T06:21:15;15.00;1.00
4308;DHT22;2167;53.448;9.984;2023-05-10T06:23:43;15.00;1.00
4308;DHT22;2167;53.448;9.984;2023-05-10T06:26:09;15.00;1.00
4308;DHT22;2167;53.448;9.984;2023-05-10T06:28:35;15.10;1.00
4308;DHT22;2167;53.448;9.984;2023-05-10T06:31:03;15.20;1.00
4308;DHT22;2167;53.448;9.984;2023-05-10T06:33:29;15.30;1.00
4308;DHT22;2167;53.448;9.984;2023-05-10T06:35:54;15.30;1.00
4308;DHT22;2167;53.448;9.984;2023-05-10T06:38:20;15.30;1.00
4308;DHT22;2167;53.448;9.984;2023-05-10T06:40:45;15.50;1.00
4308;DHT22;2167;53.448;9.984;2023-05-10T06:43:11;15.40;1.00
4308;DHT22;2167;53.448;9.984;2023-05-10T06:45:36;15.40;1.00
4308;DHT22;2167;53.448;9.984;2023-05-10T06:48:02;15.40;1.00
4308;DHT22;2167;53.448;9.984;2023-05-10T06:50:28;15.60;1.00
4308;DHT22;2167;53.448;9.984;2023-05-10T06:52:53;15.70;1.00
4308;DHT22;2167;53.448;9.984;2023-05-10T06:55:23;16.00;1.00
4308;DHT22;2167;53.448;9.984;2023-05-10T06:57:49;16.10;1.00
4308;DHT22;2167;53.448;9.984;2023-05-10T07:00:16;16.20;1.00
4308;DHT22;2167;53.448;9.984;2023-05-10T07:02:42;16.20;1.00
4308;DHT22;2167;53.448;9.984;2023-05-10T07:05:08;16.30;1.00
4308;DHT22;2167;53.448;9.984;2023-05-10T07:07:33;16.40;1.00
4308;DHT22;2167;53.448;9.984;2023-05-10T07:09:59;16.50;1.00
4308;DHT22;2167;53.448;9.984;2023-05-10T07:12:25;16.60;1.00
4308;DHT22;2167;53.448;9.984;2023-05-10T07:14:51;16.60;1.00
4308;DHT22;2167;53.448;9.984;2023-05-10T07:17:17;16.60;1.00
4308;DHT22;2167;53.448;9.984;2023-05-10T07:19:42;16.70;1.00
4308;DHT22;2167;53.448;9.984;2023-05-10T07:22:08;16.60;1.00
4308;DHT22;2167;53.448;9.984;2023-05-10T07:24:34;16.60;1.00
4308;DHT22;2167;53.448;9.984;2023-05-10T07:27:00;16.70;1.00
4308;DHT22;2167;53.448;9.984;2023-05-10T07:29:26;16.80;1.00
4308;DHT22;2167;53.448;9.984;2023-05-10T07:31:52;16.90;1.00
4308;DHT22;2167;53.448;9.984;2023-05-10T07:34:18;17.00;1.00
4308;DHT22;2167;53.448;9.984;2023-05-10T07:36:43;17.10;1.00
4308;DHT22;2167;53.448;9.984;2023-05-10T07:39:09;17.10;1.00
4308;DHT22;2167;53.448;9.984;2023-05-10T07:41:35;17.20;1.00
4308;DHT22;2167;53.448;9.984;2023-05-10T07:44:02;17.20;1.00
4308;DHT22;2167;53.448;9.984;2023-05-10T07:46:28;17.10;1.00
4308;DHT22;2167;53.448;9.984;2023-05-10T07:48:54;17.10;1.00
4308;DHT22;2167;53.448;9.984;2023-05-10T07:51:20;17.10;1.00
4308;DHT22;2167;53.448;9.984;2023-05-10T07:53:45;17.10;1.00
4308;DHT22;2167;53.448;9.984;2023-05-10T07:56:25;17.10;1.00
4308;DHT22;2167;53.448;9.984;2023-05-10T07:58:53;17.10;1.00
4308;DHT22;2167;53.448;9.984;2023-05-10T08:01:20;17.10;1.00
4308;DHT22;2167;53.448;9.984;2023-05-10T08:03:45;17.00;1.00
4308;DHT22;2167;53.448;9.984;2023-05-10T08:06:11;16.90;1.00
4308;DHT22;2167;53.448;9.984;2023-05-10T08:08:37;16.90;1.00
4308;DHT22;2167;53.448;9.984;2023-05-10T08:11:03;17.00;1.00
4308;DHT22;2167;53.448;9.984;2023-05-10T08:13:29;16.80;1.00
4308;DHT22;2167;53.448;9.984;2023-05-10T08:15:55;16.90;1.00
4308;DHT22;2167;53.448;9.984;2023-05-10T08:18:20;16.90;1.00
4308;DHT22;2167;53.448;9.984;2023-05-10T08:20:46;17.00;1.00
4308;DHT22;2167;53.448;9.984;2023-05-10T08:23:12;17.10;1.00
4308;DHT22;2167;53.448;9.984;2023-05-10T08:25:38;17.00;1.00
4308;DHT22;2167;53.448;9.984;2023-05-10T08:28:04;16.90;1.00
4308;DHT22;2167;53.448;9.984;2023-05-10T08:30:30;16.80;1.00
4308;DHT22;2167;53.448;9.984;2023-05-10T08:32:55;16.80;1.00
4308;DHT22;2167;53.448;9.984;2023-05-10T08:35:21;16.80;1.00
4308;DHT22;2167;53.448;9.984;2023-05-10T08:37:46;16.80;1.00
4308;DHT22;2167;53.448;9.984;2023-05-10T08:40:12;16.80;1.00
4308;DHT22;2167;53.448;9.984;2023-05-10T08:42:40;16.70;1.00
4308;DHT22;2167;53.448;9.984;2023-05-10T08:45:08;16.80;1.00
4308;DHT22;2167;53.448;9.984;2023-05-10T08:47:36;16.80;1.00
4308;DHT22;2167;53.448;9.984;2023-05-10T08:50:03;16.90;1.00
4308;DHT22;2167;53.448;9.984;2023-05-10T08:52:30;16.90;1.00
4308;DHT22;2167;53.448;9.984;2023-05-10T08:54:58;17.00;1.00
4308;DHT22;2167;53.448;9.984;2023-05-10T08:57:23;16.80;1.00
4308;DHT22;2167;53.448;9.984;2023-05-10T08:59:49;16.80;1.00
4308;DHT22;2167;53.448;9.984;2023-05-10T09:02:16;16.90;1.00
4308;DHT22;2167;53.448;9.984;2023-05-10T09:04:42;16.80;1.00
4308;DHT22;2167;53.448;9.984;2023-05-10T09:07:08;16.70;1.00
4308;DHT22;2167;53.448;9.984;2023-05-10T09:09:34;16.60;1.00
4308;DHT22;2167;53.448;9.984;2023-05-10T09:12:00;16.50;1.00
4308;DHT22;2167;53.448;9.984;2023-05-10T09:14:25;16.40;1.00
4308;DHT22;2167;53.448;9.984;2023-05-10T09:16:54;16.40;1.00
4308;DHT22;2167;53.448;9.984;2023-05-10T09:19:20;16.30;1.00
4308;DHT22;2167;53.448;9.984;2023-05-10T09:21:46;16.30;1.00
4308;DHT22;2167;53.448;9.984;2023-05-10T09:24:12;16.10;1.00
4308;DHT22;2167;53.448;9.984;2023-05-10T09:26:46;16.10;1.00
4308;DHT22;2167;53.448;9.984;2023-05-10T09:29:15;16.00;1.00
4308;DHT22;2167;53.448;9.984;2023-05-10T09:31:45;16.00;1.00
4308;DHT22;2167;53.448;9.984;2023-05-10T09:34:15;15.90;1.00
4308;DHT22;2167;53.448;9.984;2023-05-10T09:36:56;15.80;1.00
4308;DHT22;2167;53.448;9.984;2023-05-10T09:39:33;15.70;1.00
4308;DHT22;2167;53.448;9.984;2023-05-10T09:42:00;15.60;5.30
4308;DHT22;2167;53.448;9.984;2023-05-10T09:44:29;15.70;8.50
4308;DHT22;2167;53.448;9.984;2023-05-10T09:46:55;15.60;9.00
4308;DHT22;2167;53.448;9.984;2023-05-10T09:49:21;15.60;9.20
4308;DHT22;2167;53.448;9.984;2023-05-10T09:51:47;15.50;13.10
4308;DHT22;2167;53.448;9.984;2023-05-10T09:54:15;15.40;16.20
4308;DHT22;2167;53.448;9.984;2023-05-10T09:56:41;15.40;15.50
4308;DHT22;2167;53.448;9.984;2023-05-10T09:59:11;15.20;14.80
4308;DHT22;2167;53.448;9.984;2023-05-10T10:01:37;15.10;17.50
4308;DHT22;2167;53.448;9.984;2023-05-10T10:04:09;14.90;18.80
4308;DHT22;2167;53.448;9.984;2023-05-10T10:06:38;14.90;22.30
4308;DHT22;2167;53.448;9.984;2023-05-10T10:09:05;14.80;23.30
4308;DHT22;2167;53.448;9.984;2023-05-10T10:11:33;14.80;24.00
4308;DHT22;2167;53.448;9.984;2023-05-10T10:13:59;14.80;23.30
4308;DHT22;2167;53.448;9.984;2023-05-10T10:16:25;14.70;22.70
4308;DHT22;2167;53.448;9.984;2023-05-10T10:18:51;14.60;24.30
4308;DHT22;2167;53.448;9.984;2023-05-10T10:21:17;14.60;25.30
4308;DHT22;2167;53.448;9.984;2023-05-10T10:23:43;14.50;26.30
4308;DHT22;2167;53.448;9.984;2023-05-10T10:26:10;14.60;27.70
4308;DHT22;2167;53.448;9.984;2023-05-10T10:34:09;14.80;27.80
4308;DHT22;2167;53.448;9.984;2023-05-10T10:36:45;14.90;27.30
4308;DHT22;2167;53.448;9.984;2023-05-10T10:39:11;14.90;28.20
4308;DHT22;2167;53.448;9.984;2023-05-10T10:41:40;14.80;27.20
4308;DHT22;2167;53.448;9.984;2023-05-10T10:55:16;15.00;34.20
4308;DHT22;2167;53.448;9.984;2023-05-10T11:05:43;15.10;34.30
4308;DHT22;2167;53.448;9.984;2023-05-10T11:10:50;15.20;32.40
4308;DHT22;2167;53.448;9.984;2023-05-10T11:13:28;15.00;32.20
4308;DHT22;2167;53.448;9.984;2023-05-10T11:15:54;15.10;32.30
4308;DHT22;2167;53.448;9.984;2023-05-10T11:18:29;15.10;33.70
4308;DHT22;2167;53.448;9.984;2023-05-10T11:21:02;15.20;34.60
4308;DHT22;2167;53.448;9.984;2023-05-10T11:23:49;15.20;32.10
4308;DHT22;2167;53.448;9.984;2023-05-10T11:26:16;15.10;29.30
4308;DHT22;2167;53.448;9.984;2023-05-10T11:28:46;15.00;28.90
4308;DHT22;2167;53.448;9.984;2023-05-10T11:31:20;14.90;30.00
4308;DHT22;2167;53.448;9.984;2023-05-10T11:33:47;14.90;31.40
4308;DHT22;2167;53.448;9.984;2023-05-10T11:36:18;14.90;33.90
4308;DHT22;2167;53.448;9.984;2023-05-10T11:38:45;14.90;34.60
4308;DHT22;2167;53.448;9.984;2023-05-10T11:41:12;14.90;35.00
4308;DHT22;2167;53.448;9.984;2023-05-10T11:43:41;14.90;36.50
4308;DHT22;2167;53.448;9.984;2023-05-10T11:46:09;14.90;37.20
4308;DHT22;2167;53.448;9.984;2023-05-10T11:48:35;14.90;38.70
4308;DHT22;2167;53.448;9.984;2023-05-10T11:51:02;15.00;39.20
4308;DHT22;2167;53.448;9.984;2023-05-10T11:53:31;15.00;39.70
4308;DHT22;2167;53.448;9.984;2023-05-10T11:56:03;15.20;40.00
4308;DHT22;2167;53.448;9.984;2023-05-10T11:58:30;15.20;37.60
4308;DHT22;2167;53.448;9.984;2023-05-10T12:00:56;15.20;37.10
4308;DHT22;2167;53.448;9.984;2023-05-10T12:03:21;15.20;38.60
4308;DHT22;2167;53.448;9.984;2023-05-10T12:05:47;15.30;39.20
4308;DHT22;2167;53.448;9.984;2023-05-10T12:08:14;15.40;40.00
4308;DHT22;2167;53.448;9.984;2023-05-10T12:10:40;15.50;39.80
4308;DHT22;2167;53.448;9.984;2023-05-10T12:13:11;15.40;35.80
4308;DHT22;2167;53.448;9.984;2023-05-10T12:15:37;15.40;35.60
4308;DHT22;2167;53.448;9.984;2023-05-10T12:18:03;15.40;38.00
4308;DHT22;2167;53.448;9.984;2023-05-10T12:20:29;15.50;40.50
4308;DHT22;2167;53.448;9.984;2023-05-10T12:22:56;15.60;35.50
4308;DHT22;2167;53.448;9.984;2023-05-10T12:25:24;15.60;34.90
4308;DHT22;2167;53.448;9.984;2023-05-10T12:27:55;15.50;35.80
4308;DHT22;2167;53.448;9.984;2023-05-10T12:30:26;15.60;36.10
4308;DHT22;2167;53.448;9.984;2023-05-10T12:32:53;15.60;35.50
4308;DHT22;2167;53.448;9.984;2023-05-10T12:35:19;15.60;36.20
4308;DHT22;2167;53.448;9.984;2023-05-10T12:37:47;15.80;35.30
4308;DHT22;2167;53.448;9.984;2023-05-10T12:40:13;15.80;34.60
4308;DHT22;2167;53.448;9.984;2023-05-10T12:42:39;15.90;34.90
4308;DHT22;2167;53.448;9.984;2023-05-10T12:45:06;15.80;34.80
4308;DHT22;2167;53.448;9.984;2023-05-10T12:47:32;15.80;34.80
4308;DHT22;2167;53.448;9.984;2023-05-10T12:49:58;15.90;36.10
4308;DHT22;2167;53.448;9.984;2023-05-10T12:52:25;16.00;33.70
4308;DHT22;2167;53.448;9.984;2023-05-10T12:54:51;16.00;34.30
4308;DHT22;2167;53.448;9.984;2023-05-10T12:57:17;16.00;35.30
4308;DHT22;2167;53.448;9.984;2023-05-10T12:59:45;16.10;36.30
4308;DHT22;2167;53.448;9.984;2023-05-10T13:02:10;16.30;36.50
4308;DHT22;2167;53.448;9.984;2023-05-10T13:04:36;16.50;35.60
4308;DHT22;2167;53.448;9.984;2023-05-10T13:07:06;16.60;29.50
4308;DHT22;2167;53.448;9.984;2023-05-10T13:09:31;16.70;30.60
4308;DHT22;2167;53.448;9.984;2023-05-10T13:11:57;16.70;30.90
4308;DHT22;2167;53.448;9.984;2023-05-10T13:14:23;16.90;31.30
4308;DHT22;2167;53.448;9.984;2023-05-10T13:16:48;17.00;31.40
4308;DHT22;2167;53.448;9.984;2023-05-10T13:19:15;17.00;30.90
4308;DHT22;2167;53.448;9.984;2023-05-10T13:21:41;17.20;27.80
4308;DHT22;2167;53.448;9.984;2023-05-10T13:24:07;17.10;28.10
4308;DHT22;2167;53.448;9.984;2023-05-10T13:26:33;17.10;28.10
4308;DHT22;2167;53.448;9.984;2023-05-10T13:28:59;17.20;28.50
4308;DHT22;2167;53.448;9.984;2023-05-10T13:31:24;17.20;28.10
4308;DHT22;2167;53.448;9.984;2023-05-10T13:33:50;17.20;26.90
4308;DHT22;2167;53.448;9.984;2023-05-10T13:36:16;17.20;26.20
4308;DHT22;2167;53.448;9.984;2023-05-10T13:38:41;17.10;26.60
4308;DHT22;2167;53.448;9.984;2023-05-10T13:41:07;17.10;25.30
4308;DHT22;2167;53.448;9.984;2023-05-10T13:43:32;16.90;26.00
4308;DHT22;2167;53.448;9.984;2023-05-10T13:45:58;16.80;27.40
4308;DHT22;2167;53.448;9.984;2023-05-10T13:48:23;16.80;29.60
4308;DHT22;2167;53.448;9.984;2023-05-10T13:50:49;16.90;29.90
4308;DHT22;2167;53.448;9.984;2023-05-10T13:53:15;16.90;30.50
4308;DHT22;2167;53.448;9.984;2023-05-10T13:59:02;16.90;27.70
4308;DHT22;2167;53.448;9.984;2023-05-10T14:01:28;16.90;29.20
4308;DHT22;2167;53.448;9.984;2023-05-10T14:03:53;17.10;28.90
4308;DHT22;2167;53.448;9.984;2023-05-10T14:06:19;17.20;27.40
4308;DHT22;2167;53.448;9.984;2023-05-10T14:08:44;17.30;23.90
4308;DHT22;2167;53.448;9.984;2023-05-10T14:11:10;17.40;22.60
4308;DHT22;2167;53.448;9.984;2023-05-10T14:13:36;17.50;23.40
4308;DHT22;2167;53.448;9.984;2023-05-10T14:16:02;17.60;20.90
4308;DHT22;2167;53.448;9.984;2023-05-10T14:18:28;17.60;21.10
4308;DHT22;2167;53.448;9.984;2023-05-10T14:20:54;17.70;21.40
4308;DHT22;2167;53.448;9.984;2023-05-10T14:23:21;17.80;20.90
4308;DHT22;2167;53.448;9.984;2023-05-10T14:25:52;17.90;20.20
4308;DHT22;2167;53.448;9.984;2023-05-10T14:28:18;18.00;18.20
4308;DHT22;2167;53.448;9.984;2023-05-10T14:30:44;18.00;18.30
4308;DHT22;2167;53.448;9.984;2023-05-10T14:33:10;18.10;18.60
4308;DHT22;2167;53.448;9.984;2023-05-10T14:35:35;18.10;16.90
4308;DHT22;2167;53.448;9.984;2023-05-10T14:38:02;18.20;17.20
4308;DHT22;2167;53.448;9.984;2023-05-10T14:40:29;18.20;17.00
4308;DHT22;2167;53.448;9.984;2023-05-10T14:42:55;18.20;18.50
4308;DHT22;2167;53.448;9.984;2023-05-10T14:45:22;18.30;17.30
4308;DHT22;2167;53.448;9.984;2023-05-10T14:47:48;18.40;18.20
4308;DHT22;2167;53.448;9.984;2023-05-10T14:50:14;18.40;17.70
4308;DHT22;2167;53.448;9.984;2023-05-10T14:52:42;18.30;18.00
4308;DHT22;2167;53.448;9.984;2023-05-10T14:55:08;18.30;16.30
4308;DHT22;2167;53.448;9.984;2023-05-10T14:57:34;18.20;15.00
4308;DHT22;2167;53.448;9.984;2023-05-10T14:59:59;18.40;17.20
4308;DHT22;2167;53.448;9.984;2023-05-10T15:02:25;18.40;16.40
4308;DHT22;2167;53.448;9.984;2023-05-10T15:04:50;18.50;16.20
4308;DHT22;2167;53.448;9.984;2023-05-10T15:07:16;18.60;17.20
4308;DHT22;2167;53.448;9.984;2023-05-10T15:09:44;18.80;15.60
4308;DHT22;2167;53.448;9.984;2023-05-10T15:12:09;18.90;11.60
4308;DHT22;2167;53.448;9.984;2023-05-10T15:14:35;18.80;12.10
4308;DHT22;2167;53.448;9.984;2023-05-10T15:17:01;18.60;10.80
4308;DHT22;2167;53.448;9.984;2023-05-10T15:19:27;18.50;12.40
4308;DHT22;2167;53.448;9.984;2023-05-10T15:21:55;18.40;13.40
4308;DHT22;2167;53.448;9.984;2023-05-10T15:24:21;18.30;14.00
4308;DHT22;2167;53.448;9.984;2023-05-10T15:26:47;18.20;14.20
4308;DHT22;2167;53.448;9.984;2023-05-10T15:29:13;18.00;15.20
4308;DHT22;2167;53.448;9.984;2023-05-10T15:31:45;17.90;16.30
4308;DHT22;2167;53.448;9.984;2023-05-10T15:34:11;17.90;17.10
4308;DHT22;2167;53.448;9.984;2023-05-10T15:36:36;17.80;20.40
4308;DHT22;2167;53.448;9.984;2023-05-10T15:39:02;17.80;23.20
4308;DHT22;2167;53.448;9.984;2023-05-10T15:41:28;17.70;25.40
4308;DHT22;2167;53.448;9.984;2023-05-10T15:43:54;17.60;27.80
4308;DHT22;2167;53.448;9.984;2023-05-10T15:46:20;17.50;29.60
4308;DHT22;2167;53.448;9.984;2023-05-10T15:48:46;17.40;31.00
4308;DHT22;2167;53.448;9.984;2023-05-10T15:51:12;17.30;32.70
4308;DHT22;2167;53.448;9.984;2023-05-10T15:53:38;17.10;34.10
4308;DHT22;2167;53.448;9.984;2023-05-10T15:56:03;17.00;36.70
4308;DHT22;2167;53.448;9.984;2023-05-10T15:58:29;16.90;38.20
4308;DHT22;2167;53.448;9.984;2023-05-10T16:00:56;16.80;39.00
4308;DHT22;2167;53.448;9.984;2023-05-10T16:03:25;16.70;39.90
4308;DHT22;2167;53.448;9.984;2023-05-10T16:05:50;16.60;40.80
4308;DHT22;2167;53.448;9.984;2023-05-10T16:08:16;16.50;41.80
4308;DHT22;2167;53.448;9.984;2023-05-10T16:10:42;16.50;43.80
4308;DHT22;2167;53.448;9.984;2023-05-10T16:13:08;16.40;44.30
4308;DHT22;2167;53.448;9.984;2023-05-10T16:15:33;16.40;45.20
4308;DHT22;2167;53.448;9.984;2023-05-10T16:17:59;16.50;45.70
4308;DHT22;2167;53.448;9.984;2023-05-10T16:20:25;16.50;45.80
4308;DHT22;2167;53.448;9.984;2023-05-10T16:22:51;16.60;44.80
4308;DHT22;2167;53.448;9.984;2023-05-10T16:25:16;16.60;45.40
4308;DHT22;2167;53.448;9.984;2023-05-10T16:27:42;16.70;45.40
4308;DHT22;2167;53.448;9.984;2023-05-10T16:30:08;16.70;45.60
4308;DHT22;2167;53.448;9.984;2023-05-10T16:32:34;16.70;43.60
4308;DHT22;2167;53.448;9.984;2023-05-10T16:35:00;16.70;43.20
4308;DHT22;2167;53.448;9.984;2023-05-10T16:37:25;16.70;42.30
4308;DHT22;2167;53.448;9.984;2023-05-10T16:39:51;16.70;42.90
4308;DHT22;2167;53.448;9.984;2023-05-10T16:42:17;16.70;43.70
4308;DHT22;2167;53.448;9.984;2023-05-10T16:44:43;16.70;44.20
4308;DHT22;2167;53.448;9.984;2023-05-10T16:47:08;16.70;43.60
4308;DHT22;2167;53.448;9.984;2023-05-10T16:49:37;16.80;42.40
4308;DHT22;2167;53.448;9.984;2023-05-10T16:52:03;16.70;42.50